Time;durP1;ratioP1;P1;durP2;ratioP2;P2;SDS_P1;SDS_P2;PMS_P1;PMS_P2;Temp;Humidity;BMP_temperature;BMP_pressure;BME280_temperature;BME280_humidity;BME280_pressure;Samples;Min_cycle;Max_cycle;Signal;HPM_P1;HPM_P2
2022/11/22 00:00:26;;;;;;;7.00;5.23;;;0.50;99.90;;;;;;5054414;28;20258;-65
2022/11/22 00:02:53;;;;;;;7.63;6.20;;;0.50;99.90;;;;;;5054423;28;20209;-66
2022/11/22 00:05:20;;;;;;;7.83;5.77;;;0.60;99.90;;;;;;5051564;28;20208;-66
2022/11/22 00:07:47;;;;;;;7.90;6.17;;;0.60;99.90;;;;;;5034216;28;20202;-66
2022/11/22 00:10:14;;;;;;;6.67;5.50;;;0.60;99.90;;;;;;5042619;28;20218;-65
2022/11/22 00:12:41;;;;;;;7.60;5.60;;;0.50;99.90;;;;;;5053885;28;20201;-64
2022/11/22 00:15:10;;;;;;;7.10;5.87;;;0.60;99.90;;;;;;5054151;28;20213;-64
2022/11/22 00:17:38;;;;;;;7.30;5.80;;;0.60;99.90;;;;;;5053969;28;20295;-66
2022/11/22 00:20:06;;;;;;;6.83;5.60;;;0.60;99.90;;;;;;5053954;28;20201;-65
2022/11/22 00:22:33;;;;;;;9.43;6.57;;;0.60;99.90;;;;;;5050373;28;20210;-65
2022/11/22 00:25:00;;;;;;;7.03;5.73;;;0.60;99.90;;;;;;5033502;28;20297;-65
2022/11/22 00:27:27;;;;;;;7.33;5.70;;;0.60;99.90;;;;;;5033550;28;20202;-65
2022/11/22 00:29:54;;;;;;;7.33;5.67;;;0.60;99.90;;;;;;5039258;28;20583;-65
2022/11/22 00:32:22;;;;;;;6.90;5.87;;;0.60;99.90;;;;;;5051566;28;20214;-66
2022/11/22 00:34:49;;;;;;;6.13;5.00;;;0.60;99.90;;;;;;5043325;28;20205;-64
2022/11/22 00:37:15;;;;;;;6.30;5.30;;;0.60;99.90;;;;;;5053417;28;20209;-65
2022/11/22 00:39:42;;;;;;;6.17;5.43;;;0.60;99.90;;;;;;5053737;28;20228;-65
2022/11/22 00:42:09;;;;;;;14.70;10.53;;;0.60;99.90;;;;;;5053447;28;20206;-65
2022/11/22 00:44:36;;;;;;;8.23;6.50;;;0.60;99.90;;;;;;5053258;28;20205;-65
2022/11/22 00:47:03;;;;;;;6.90;5.73;;;0.50;99.90;;;;;;5052954;28;20209;-65
2022/11/22 00:49:31;;;;;;;7.53;5.73;;;0.60;99.90;;;;;;5053271;28;20206;-68
2022/11/22 00:51:57;;;;;;;7.17;5.40;;;0.60;99.90;;;;;;5053327;28;20221;-65
2022/11/22 00:54:24;;;;;;;6.83;5.30;;;0.50;99.90;;;;;;5053124;28;20211;-64
2022/11/22 00:56:51;;;;;;;6.43;5.40;;;0.60;99.90;;;;;;5053247;28;20242;-65
2022/11/22 00:59:18;;;;;;;8.17;5.73;;;0.50;99.90;;;;;;5053251;28;20569;-64
2022/11/22 01:01:44;;;;;;;7.90;6.10;;;0.50;99.90;;;;;;5053187;28;20227;-64
2022/11/22 01:04:11;;;;;;;7.57;5.90;;;0.50;99.90;;;;;;5052667;28;20209;-64
2022/11/22 01:06:39;;;;;;;7.97;6.10;;;0.50;99.90;;;;;;5053272;28;20205;-65
2022/11/22 01:09:06;;;;;;;7.40;5.63;;;0.50;99.90;;;;;;5052900;28;20208;-65
2022/11/22 01:11:33;;;;;;;7.97;6.10;;;0.50;99.90;;;;;;5052705;28;20232;-65
2022/11/22 01:14:00;;;;;;;9.30;5.97;;;0.50;99.90;;;;;;5052269;28;20228;-66
2022/11/22 01:16:27;;;;;;;8.03;5.80;;;0.40;99.90;;;;;;5052985;28;20270;-65
2022/11/22 01:18:53;;;;;;;10.20;6.93;;;0.40;99.90;;;;;;5052599;28;20215;-66
2022/11/22 01:21:20;;;;;;;9.17;6.87;;;0.40;99.90;;;;;;5052932;28;20197;-65
2022/11/22 01:23:48;;;;;;;8.27;6.50;;;0.40;99.90;;;;;;5052500;28;20224;-66
2022/11/22 01:26:15;;;;;;;9.43;6.87;;;0.30;99.90;;;;;;5051990;28;20206;-64
2022/11/22 01:28:42;;;;;;;9.30;6.80;;;0.30;99.90;;;;;;5052790;28;20206;-65
2022/11/22 01:31:09;;;;;;;9.13;6.80;;;0.30;99.90;;;;;;5051983;28;20242;-65
2022/11/22 01:33:36;;;;;;;9.63;7.13;;;0.30;99.90;;;;;;5052103;28;20228;-64
2022/11/22 01:36:03;;;;;;;8.57;6.77;;;0.30;99.90;;;;;;5052526;28;20206;-65
2022/11/22 01:38:30;;;;;;;9.30;7.03;;;0.20;99.90;;;;;;5051802;28;20212;-65
2022/11/22 01:40:58;;;;;;;9.10;7.43;;;0.30;99.90;;;;;;5052115;28;20209;-66
2022/11/22 01:43:27;;;;;;;8.70;6.50;;;0.30;99.90;;;;;;5052106;28;20201;-66
2022/11/22 01:45:55;;;;;;;10.13;6.90;;;0.20;99.90;;;;;;5046435;28;20653;-66
2022/11/22 01:48:36;;;;;;;9.60;7.23;;;0.20;99.90;;;;;;5051883;28;20206;-65
2022/11/22 01:51:06;;;;;;;10.87;7.60;;;0.20;99.90;;;;;;5052089;28;20224;-65
2022/11/22 01:53:36;;;;;;;10.73;8.60;;;0.20;99.90;;;;;;5050671;28;20573;-65
2022/11/22 01:56:09;;;;;;;11.93;8.77;;;0.20;99.90;;;;;;5052024;28;20221;-65
2022/11/22 01:58:38;;;;;;;13.23;9.47;;;0.20;99.90;;;;;;5052551;28;20659;-65
2022/11/22 02:01:06;;;;;;;14.10;10.23;;;0.20;99.90;;;;;;5051837;28;20228;-64
2022/11/22 02:03:36;;;;;;;13.83;10.10;;;0.20;99.90;;;;;;5051465;28;20586;-65
2022/11/22 02:06:03;;;;;;;12.07;9.30;;;0.20;99.90;;;;;;5052017;28;20205;-64
2022/11/22 02:08:36;;;;;;;13.67;10.20;;;0.20;99.90;;;;;;5051710;28;20566;-65
2022/11/22 02:11:06;;;;;;;14.90;10.83;;;0.10;99.90;;;;;;5051792;28;20680;-65
2022/11/22 02:13:37;;;;;;;14.87;11.37;;;0.10;99.90;;;;;;5051483;28;20584;-65
2022/11/22 02:16:04;;;;;;;16.27;11.37;;;0.10;99.90;;;;;;5051408;28;20185;-64
2022/11/22 02:18:35;;;;;;;14.17;10.83;;;0.10;99.90;;;;;;5051945;28;20205;-64
2022/11/22 02:21:02;;;;;;;14.80;10.90;;;0.20;99.90;;;;;;5051728;28;20192;-64
2022/11/22 02:23:38;;;;;;;16.53;10.93;;;0.10;99.90;;;;;;5049875;28;20211;-64
2022/11/22 02:26:07;;;;;;;15.73;11.63;;;0.10;99.90;;;;;;5051674;28;20193;-64
2022/11/22 02:28:37;;;;;;;16.97;11.73;;;0.10;99.90;;;;;;5051952;28;20688;-64
2022/11/22 02:31:04;;;;;;;15.97;11.20;;;0.10;99.90;;;;;;5051733;28;20237;-65
2022/11/22 02:33:30;;;;;;;17.80;12.07;;;0.10;99.90;;;;;;5051373;28;20205;-63
2022/11/22 02:35:57;;;;;;;16.90;11.50;;;0.10;99.90;;;;;;5051931;28;20224;-63
2022/11/22 02:38:27;;;;;;;17.93;11.67;;;0.00;99.90;;;;;;5051862;28;20565;-65
2022/11/22 02:40:57;;;;;;;18.93;12.70;;;0.00;99.90;;;;;;5051295;28;20285;-65
2022/11/22 02:43:29;;;;;;;17.30;12.20;;;0.00;99.90;;;;;;5051192;28;20543;-64
2022/11/22 02:45:56;;;;;;;15.47;10.97;;;0.00;99.90;;;;;;5051548;28;20217;-65
2022/11/22 02:48:23;;;;;;;16.90;11.90;;;0.00;99.90;;;;;;5051666;28;20204;-63
2022/11/22 02:50:49;;;;;;;16.07;11.10;;;-0.10;99.90;;;;;;5053021;28;20225;-64
2022/11/22 02:53:16;;;;;;;15.23;10.83;;;0.00;99.90;;;;;;5055286;28;20201;-64
2022/11/22 02:55:43;;;;;;;15.40;11.10;;;0.00;99.90;;;;;;5055158;28;20205;-65
2022/11/22 02:58:10;;;;;;;17.93;11.60;;;-0.10;99.90;;;;;;5055217;28;20212;-64
2022/11/22 03:00:38;;;;;;;19.07;12.03;;;-0.10;99.90;;;;;;5055107;28;20236;-63
2022/11/22 03:03:05;;;;;;;16.77;11.30;;;-0.10;99.90;;;;;;5055078;28;20547;-64
2022/11/22 03:05:32;;;;;;;16.70;11.60;;;-0.10;99.90;;;;;;5055272;28;20201;-66
2022/11/22 03:07:59;;;;;;;15.23;10.70;;;-0.10;99.90;;;;;;5055338;28;20237;-64
2022/11/22 03:10:26;;;;;;;17.10;11.57;;;-0.10;99.90;;;;;;5055243;28;20211;-67
2022/11/22 03:12:53;;;;;;;15.30;11.00;;;0.00;99.90;;;;;;5054563;28;20207;-67
2022/11/22 03:15:20;;;;;;;15.30;10.60;;;-0.10;99.90;;;;;;5055309;28;20202;-65
2022/11/22 03:17:48;;;;;;;14.60;10.20;;;-0.10;99.90;;;;;;5055113;28;20205;-63
2022/11/22 03:20:15;;;;;;;13.27;10.30;;;-0.10;99.90;;;;;;5055166;28;20209;-64
2022/11/22 03:22:42;;;;;;;14.37;10.57;;;-0.10;99.90;;;;;;5054506;28;20197;-64
2022/11/22 03:25:09;;;;;;;14.53;10.30;;;-0.10;99.90;;;;;;5055190;28;20206;-67
2022/11/22 03:27:36;;;;;;;14.50;9.80;;;-0.10;99.90;;;;;;5054991;28;20808;-68
2022/11/22 03:30:03;;;;;;;13.30;10.23;;;-0.10;99.90;;;;;;5055062;28;20721;-68
2022/11/22 03:32:30;;;;;;;14.40;9.77;;;-0.20;99.90;;;;;;5053839;28;20213;-67
2022/11/22 03:34:58;;;;;;;12.27;9.23;;;-0.20;99.90;;;;;;5054729;28;20205;-67
2022/11/22 03:37:25;;;;;;;14.73;10.10;;;-0.20;99.90;;;;;;5055011;28;20224;-69
2022/11/22 03:39:52;;;;;;;13.97;10.47;;;-0.20;99.90;;;;;;5054826;28;20201;-68
2022/11/22 03:42:18;;;;;;;14.17;10.43;;;-0.20;99.90;;;;;;5054550;28;20207;-68
2022/11/22 03:44:45;;;;;;;15.40;10.93;;;-0.30;99.90;;;;;;5054223;28;20201;-68
2022/11/22 03:47:12;;;;;;;17.10;11.77;;;-0.30;99.90;;;;;;5054862;28;20228;-69
2022/11/22 03:49:39;;;;;;;18.53;12.83;;;-0.30;99.90;;;;;;5054054;28;20205;-68
2022/11/22 03:52:07;;;;;;;15.83;11.20;;;-0.30;99.90;;;;;;5054707;28;20222;-67
2022/11/22 03:54:34;;;;;;;17.67;12.13;;;-0.30;99.90;;;;;;5054085;28;20284;-67
2022/11/22 03:57:00;;;;;;;16.10;11.30;;;-0.30;99.90;;;;;;5054767;28;20205;-66
2022/11/22 03:59:28;;;;;;;15.93;11.73;;;-0.30;99.90;;;;;;5054465;28;20207;-67
2022/11/22 04:01:54;;;;;;;16.37;11.10;;;-0.30;99.90;;;;;;5054131;28;20224;-68
2022/11/22 04:04:21;;;;;;;14.90;10.63;;;-0.20;99.90;;;;;;5054108;28;20601;-68
2022/11/22 06:36:03;;;;;;;25.57;16.27;;;-1.00;99.90;;;;;;5599649;22;21112;-66
2022/11/22 06:38:30;;;;;;;26.33;15.83;;;-1.00;99.90;;;;;;5087763;28;20188;-66
2022/11/22 06:41:00;;;;;;;25.07;16.70;;;-0.90;99.90;;;;;;5088376;28;20227;-68
2022/11/22 06:43:27;;;;;;;22.73;15.27;;;-0.80;99.90;;;;;;5088287;28;20200;-66
2022/11/22 06:45:55;;;;;;;24.93;15.47;;;-0.70;99.90;;;;;;5082210;28;20210;-71
2022/11/22 06:48:22;;;;;;;23.83;14.97;;;-0.60;99.90;;;;;;5078255;28;20203;-69
2022/11/22 06:50:49;;;;;;;22.33;15.23;;;-0.50;99.90;;;;;;5073473;28;20229;-66
2022/11/22 06:53:17;;;;;;;20.17;13.73;;;-0.40;99.90;;;;;;5068494;28;20212;-66
2022/11/22 06:55:44;;;;;;;18.27;13.17;;;-0.30;99.90;;;;;;5078336;28;20228;-69
2022/11/22 06:58:10;;;;;;;21.13;13.70;;;-0.30;99.90;;;;;;5089313;28;20204;-67
2022/11/22 07:00:37;;;;;;;20.50;13.73;;;-0.20;99.90;;;;;;5088927;28;20204;-68
2022/11/22 07:03:04;;;;;;;20.30;13.93;;;-0.20;99.90;;;;;;5088946;28;20206;-68
2022/11/22 07:05:31;;;;;;;21.40;14.40;;;-0.20;99.90;;;;;;5086598;28;20196;-68
2022/11/22 07:07:57;;;;;;;20.57;13.10;;;-0.10;99.90;;;;;;5086975;28;20208;-69
2022/11/22 07:10:26;;;;;;;20.33;13.70;;;-0.10;99.90;;;;;;5086811;28;20662;-68
2022/11/22 07:12:53;;;;;;;21.00;13.80;;;-0.10;99.90;;;;;;5087330;28;20207;-67
2022/11/22 07:15:20;;;;;;;25.17;17.97;;;0.00;99.90;;;;;;5088198;28;20220;-69
2022/11/22 07:17:46;;;;;;;24.20;16.13;;;0.00;99.90;;;;;;5088791;28;20210;-67
2022/11/22 07:20:14;;;;;;;17.53;12.80;;;0.10;99.90;;;;;;5088732;28;20295;-65
2022/11/22 07:22:40;;;;;;;20.70;14.00;;;0.10;99.90;;;;;;5087628;28;20210;-66
2022/11/22 07:25:08;;;;;;;20.63;13.67;;;0.20;99.90;;;;;;5088033;28;20202;-66
2022/11/22 07:27:36;;;;;;;18.60;12.57;;;0.20;99.90;;;;;;5088225;28;20212;-67
2022/11/22 07:30:03;;;;;;;19.27;13.43;;;0.20;99.90;;;;;;5088449;28;20392;-67
2022/11/22 07:32:30;;;;;;;18.97;13.23;;;0.20;99.90;;;;;;5088402;28;20224;-66
2022/11/22 07:34:57;;;;;;;17.93;13.07;;;0.30;99.90;;;;;;5087506;28;20226;-68
2022/11/22 07:37:24;;;;;;;20.30;13.43;;;0.30;99.90;;;;;;5087509;28;20236;-66
2022/11/22 07:39:50;;;;;;;21.10;14.27;;;0.30;99.90;;;;;;5088188;28;20204;-67
2022/11/22 07:42:17;;;;;;;19.57;13.87;;;0.30;99.90;;;;;;5088005;28;20204;-70
2022/11/22 07:44:45;;;;;;;19.93;13.50;;;0.40;99.90;;;;;;5084409;28;20204;-69
2022/11/22 07:47:12;;;;;;;20.80;14.07;;;0.40;99.90;;;;;;5071399;28;20279;-69
2022/11/22 07:49:39;;;;;;;22.10;13.73;;;0.40;99.90;;;;;;5072479;28;20541;-66
2022/11/22 07:52:06;;;;;;;19.27;13.43;;;0.50;99.90;;;;;;5074469;28;20200;-68
2022/11/22 07:54:33;;;;;;;18.10;12.90;;;0.50;99.90;;;;;;5074568;28;20225;-69
2022/11/22 07:57:00;;;;;;;19.43;12.80;;;0.50;99.90;;;;;;5071384;28;20215;-67
2022/11/22 07:59:27;;;;;;;22.67;14.20;;;0.40;99.90;;;;;;5073959;28;20219;-66
2022/11/22 08:01:55;;;;;;;21.27;14.43;;;0.40;99.90;;;;;;5074446;28;20200;-66
2022/11/22 08:04:22;;;;;;;21.37;13.87;;;0.40;99.90;;;;;;5075641;28;20205;-67
2022/11/22 08:06:49;;;;;;;19.97;14.03;;;0.50;99.90;;;;;;5075481;28;20205;-67
2022/11/22 08:09:16;;;;;;;20.97;14.43;;;0.50;99.90;;;;;;5074487;28;20205;-67
2022/11/22 08:11:42;;;;;;;20.43;13.87;;;0.50;99.90;;;;;;5074062;28;20207;-66
2022/11/22 08:14:10;;;;;;;19.60;13.57;;;0.50;99.90;;;;;;5073758;28;20214;-66
2022/11/22 08:16:37;;;;;;;21.70;12.93;;;0.50;99.90;;;;;;5072413;28;20211;-66
2022/11/22 08:19:05;;;;;;;18.27;12.80;;;0.50;99.90;;;;;;5074822;28;20231;-66
2022/11/22 08:21:32;;;;;;;19.37;13.63;;;0.50;99.90;;;;;;5070601;28;20201;-67
2022/11/22 08:23:59;;;;;;;22.80;15.03;;;0.50;99.90;;;;;;5070929;28;20201;-67
2022/11/22 08:26:26;;;;;;;64.37;40.53;;;0.50;99.90;;;;;;5073494;28;20315;-66
2022/11/22 08:28:53;;;;;;;20.43;13.77;;;0.50;99.90;;;;;;5074051;28;20216;-68
2022/11/22 08:31:20;;;;;;;17.47;12.13;;;0.50;99.90;;;;;;5073881;28;20541;-66
2022/11/22 08:33:46;;;;;;;20.13;12.80;;;0.50;99.90;;;;;;5073286;28;20209;-68
2022/11/22 08:36:15;;;;;;;18.83;12.27;;;0.60;99.90;;;;;;5073591;28;20606;-65
2022/11/22 08:38:42;;;;;;;18.97;13.50;;;0.60;99.90;;;;;;5073708;28;20205;-66
2022/11/22 08:41:08;;;;;;;17.97;12.37;;;0.60;99.90;;;;;;5073630;28;20686;-67
2022/11/22 08:43:35;;;;;;;17.47;12.33;;;0.60;99.90;;;;;;5071223;28;20203;-66
2022/11/22 08:46:03;;;;;;;18.03;11.73;;;0.60;99.90;;;;;;5073342;28;20204;-66
2022/11/22 08:48:31;;;;;;;18.30;12.77;;;0.60;99.90;;;;;;5073789;28;20743;-66
2022/11/22 08:51:00;;;;;;;17.90;12.37;;;0.60;99.90;;;;;;5073675;28;20560;-67
2022/11/22 08:53:29;;;;;;;15.90;11.47;;;0.60;99.90;;;;;;5072605;28;20204;-67
2022/11/22 08:55:56;;;;;;;15.83;12.27;;;0.60;99.90;;;;;;5073498;28;20224;-65
2022/11/22 08:58:23;;;;;;;17.43;12.63;;;0.60;99.90;;;;;;5072843;28;20204;-67
2022/11/22 09:00:49;;;;;;;17.93;12.90;;;0.60;99.90;;;;;;5073461;28;20227;-68
2022/11/22 09:03:16;;;;;;;18.17;12.33;;;0.60;99.90;;;;;;5071559;28;20200;-66
2022/11/22 09:05:43;;;;;;;16.47;11.97;;;0.60;99.90;;;;;;5073107;28;20207;-66
2022/11/22 09:08:10;;;;;;;16.30;11.53;;;0.60;99.90;;;;;;5072964;28;20216;-68
2022/11/22 09:10:38;;;;;;;17.33;11.63;;;0.60;99.90;;;;;;5073518;28;20209;-66
2022/11/22 09:13:05;;;;;;;16.53;11.47;;;0.70;99.90;;;;;;5071473;28;20205;-68
2022/11/22 09:15:31;;;;;;;15.37;10.97;;;0.60;99.90;;;;;;5073042;28;20227;-69
2022/11/22 09:18:01;;;;;;;16.13;12.07;;;0.70;99.90;;;;;;5072780;28;20204;-66
2022/11/22 09:20:28;;;;;;;15.73;11.27;;;0.70;99.90;;;;;;5073331;28;20209;-66
2022/11/22 09:22:55;;;;;;;14.93;10.73;;;0.70;99.90;;;;;;5071022;28;20205;-67
2022/11/22 09:25:22;;;;;;;15.07;11.13;;;0.70;99.90;;;;;;5070999;28;20564;-67
2022/11/22 09:27:50;;;;;;;17.43;12.17;;;0.70;99.90;;;;;;5072732;28;20231;-67
2022/11/22 09:30:17;;;;;;;16.23;11.60;;;0.70;99.90;;;;;;5072452;28;20204;-67
2022/11/22 09:32:44;;;;;;;16.43;11.77;;;0.70;99.90;;;;;;5072428;28;20212;-66
2022/11/22 09:35:11;;;;;;;15.37;10.90;;;0.70;99.90;;;;;;5071597;28;20221;-67
2022/11/22 09:37:37;;;;;;;14.77;11.20;;;0.70;99.90;;;;;;5072535;28;20207;-65
2022/11/22 09:40:05;;;;;;;16.23;11.07;;;0.80;99.90;;;;;;5072538;28;20208;-67
2022/11/22 09:43:08;;;;;;;14.57;10.63;;;0.80;99.90;;;;;;5072574;28;20200;-68
2022/11/22 09:46:01;;;;;;;14.30;10.87;;;0.80;99.90;;;;;;5009568;28;20226;-66
2022/11/22 09:48:39;;;;;;;15.97;11.37;;;0.80;99.90;;;;;;5068119;28;20216;-66
2022/11/22 09:51:10;;;;;;;15.97;11.27;;;0.80;99.90;;;;;;5072358;28;20666;-65
2022/11/22 09:53:42;;;;;;;15.70;11.63;;;0.80;99.90;;;;;;5072503;28;20568;-66
2022/11/22 09:56:12;;;;;;;16.63;11.47;;;0.90;99.90;;;;;;5070502;28;20216;-65
2022/11/22 09:58:42;;;;;;;15.67;11.37;;;0.90;99.90;;;;;;5072435;28;20208;-67
2022/11/22 10:01:16;;;;;;;16.00;11.53;;;0.90;99.90;;;;;;5070625;28;20675;-66
2022/11/22 10:03:47;;;;;;;16.60;11.67;;;0.90;99.90;;;;;;5071460;28;20197;-66
2022/11/22 10:06:20;;;;;;;17.23;11.97;;;0.90;99.90;;;;;;5071179;28;20560;-66
2022/11/22 10:08:57;;;;;;;17.57;12.50;;;1.00;99.90;;;;;;5070404;28;20268;-67
2022/11/22 14:11:59;;;;;;;28.00;17.87;;;-0.30;99.90;;;;;;5088020;28;21055;-69
2022/11/22 14:14:34;;;;;;;28.53;18.10;;;-0.30;99.90;;;;;;5049528;28;20617;-67
2022/11/22 14:17:13;;;;;;;25.67;17.00;;;-0.20;99.90;;;;;;5046096;28;20209;-68
2022/11/22 14:19:54;;;;;;;26.00;17.03;;;-0.10;99.90;;;;;;5048590;28;20234;-69
2022/11/22 14:22:31;;;;;;;35.03;20.53;;;0.00;99.90;;;;;;5048878;28;20200;-68
2022/11/22 14:25:14;;;;;;;25.30;16.87;;;0.00;99.90;;;;;;5048587;28;20204;-68
2022/11/22 14:27:48;;;;;;;24.30;15.43;;;0.10;99.90;;;;;;5048623;28;20193;-69
2022/11/22 14:33:01;;;;;;;24.77;16.43;;;0.20;99.90;;;;;;5394871;22;20249;-66
2022/11/22 14:35:31;;;;;;;25.60;17.03;;;0.30;99.90;;;;;;5057432;28;20212;-67
2022/11/22 14:38:21;;;;;;;24.13;15.20;;;0.30;99.90;;;;;;5050116;28;20201;-66
2022/11/22 14:40:49;;;;;;;26.00;16.37;;;0.40;99.90;;;;;;5048809;28;20570;-66
2022/11/22 14:43:32;;;;;;;25.20;16.03;;;0.40;99.90;;;;;;5048463;28;20202;-67
2022/11/22 14:46:08;;;;;;;27.63;17.03;;;0.40;99.90;;;;;;5048752;28;20235;-66
2022/11/22 14:48:44;;;;;;;28.87;17.70;;;0.50;99.90;;;;;;5048675;28;20632;-67
2022/11/22 14:51:25;;;;;;;27.40;17.87;;;0.50;99.90;;;;;;5048554;28;20224;-68
2022/11/22 14:53:55;;;;;;;35.13;20.23;;;0.60;99.90;;;;;;5048706;28;20657;-67
2022/11/22 14:56:25;;;;;;;29.77;18.23;;;0.60;99.90;;;;;;5048693;28;20702;-66
2022/11/22 14:59:01;;;;;;;33.17;21.40;;;0.60;99.90;;;;;;5048723;28;20216;-67
2022/11/22 15:01:59;;;;;;;30.20;18.80;;;0.70;99.90;;;;;;5048384;28;20192;-66
2022/11/22 15:04:46;;;;;;;31.53;19.10;;;0.70;99.90;;;;;;5048481;28;20190;-67
2022/11/22 15:07:47;;;;;;;34.23;22.37;;;0.70;99.90;;;;;;5047954;28;20565;-68
2022/11/22 15:10:29;;;;;;;29.43;19.50;;;0.70;99.90;;;;;;5048002;28;20221;-68
2022/11/22 15:13:17;;;;;;;30.17;18.97;;;0.70;99.90;;;;;;5048496;28;20189;-67
2022/11/22 15:15:47;;;;;;;30.10;19.10;;;0.70;99.90;;;;;;5048674;28;20194;-67
2022/11/22 15:18:18;;;;;;;31.60;19.97;;;0.70;99.90;;;;;;5047879;28;20202;-67
2022/11/22 15:20:45;;;;;;;30.90;19.33;;;0.70;99.90;;;;;;5047792;28;20186;-67
2022/11/22 15:23:19;;;;;;;32.20;20.03;;;0.70;99.90;;;;;;5034417;28;20202;-67
2022/11/22 15:25:46;;;;;;;30.47;19.87;;;0.80;99.90;;;;;;5034661;28;20218;-66
2022/11/22 15:28:15;;;;;;;30.80;19.53;;;0.70;99.90;;;;;;5034028;28;20222;-66
2022/11/22 15:30:42;;;;;;;35.17;21.55;;;0.80;99.90;;;;;;5033355;28;20450;-67
2022/11/22 15:33:21;;;;;;;29.53;19.23;;;0.80;99.90;;;;;;5034087;28;20237;-66
2022/11/22 15:35:59;;;;;;;30.40;19.60;;;0.90;99.90;;;;;;5027457;28;20207;-66
2022/11/22 15:38:26;;;;;;;31.17;20.13;;;0.90;99.90;;;;;;5014346;28;20194;-67
2022/11/22 15:40:54;;;;;;;45.83;28.63;;;0.90;99.90;;;;;;5015342;28;20877;-67
2022/11/22 15:43:24;;;;;;;45.83;28.63;;;0.90;99.90;;;;;;5033255;28;20202;-67
2022/11/22 15:45:51;;;;;;;37.80;22.60;;;0.90;99.90;;;;;;5034633;28;20202;-68
2022/11/22 15:48:24;;;;;;;36.50;22.07;;;1.00;99.90;;;;;;5034244;28;20209;-67
2022/11/22 15:51:21;;;;;;;36.20;22.50;;;0.90;99.90;;;;;;5033952;28;20218;-67
2022/11/22 15:54:17;;;;;;;42.10;25.73;;;1.00;99.90;;;;;;5033871;28;20281;-66
2022/11/22 15:56:46;;;;;;;36.23;22.20;;;1.00;99.90;;;;;;5034236;28;20201;-68
2022/11/22 15:59:22;;;;;;;35.97;21.93;;;1.00;99.90;;;;;;5032697;28;20220;-66
2022/11/22 16:01:49;;;;;;;37.90;22.63;;;1.00;99.90;;;;;;5033921;28;20194;-67
2022/11/22 16:04:22;;;;;;;39.07;22.93;;;1.00;99.90;;;;;;5030144;28;20565;-67
2022/11/22 16:06:50;;;;;;;36.00;22.37;;;1.00;99.90;;;;;;5036959;28;20590;-68
2022/11/22 16:09:33;;;;;;;37.23;22.63;;;1.00;99.90;;;;;;5024810;28;20286;-67
2022/11/22 16:12:03;;;;;;;36.97;22.77;;;1.00;99.90;;;;;;5017014;28;20225;-67
2022/11/22 16:14:44;;;;;;;36.80;22.80;;;1.00;99.90;;;;;;5031464;28;20252;-66
2022/11/22 16:17:29;;;;;;;50.00;28.33;;;1.00;99.90;;;;;;5033581;28;20652;-67
2022/11/22 16:20:26;;;;;;;39.40;24.47;;;1.00;99.90;;;;;;5033561;28;20202;-68
2022/11/22 16:23:15;;;;;;;51.57;27.37;;;1.00;99.90;;;;;;5033744;28;20674;-67
2022/11/22 16:25:44;;;;;;;39.67;23.47;;;1.00;99.90;;;;;;5033213;28;20673;-68
2022/11/22 16:28:29;;;;;;;38.37;24.00;;;1.00;99.90;;;;;;5021208;28;20206;-66
2022/11/22 16:30:57;;;;;;;40.53;24.67;;;1.00;99.90;;;;;;5018025;28;20214;-67
2022/11/22 16:33:25;;;;;;;39.30;23.20;;;1.00;99.90;;;;;;5011888;28;20245;-67
2022/11/22 16:35:58;;;;;;;45.27;24.17;;;1.00;99.90;;;;;;5025958;28;20635;-68
2022/11/22 16:38:25;;;;;;;37.00;23.47;;;1.10;99.90;;;;;;5032094;28;20206;-66
2022/11/22 16:40:54;;;;;;;39.27;23.30;;;1.00;99.90;;;;;;5033283;28;20208;-67
2022/11/22 16:43:22;;;;;;;42.37;23.97;;;1.00;99.90;;;;;;5022247;28;20197;-68
2022/11/22 16:45:50;;;;;;;42.97;25.60;;;1.10;99.90;;;;;;5030918;28;20218;-69
2022/11/22 16:48:18;;;;;;;40.43;24.63;;;1.10;99.90;;;;;;5053070;28;20211;-68
2022/11/22 16:50:45;;;;;;;40.10;24.43;;;1.10;99.90;;;;;;5043365;28;20593;-68
2022/11/22 16:53:15;;;;;;;39.17;23.77;;;1.10;99.90;;;;;;5033062;28;20209;-67
2022/11/22 16:55:42;;;;;;;39.47;24.27;;;1.10;99.90;;;;;;5033390;28;20206;-67
2022/11/22 16:58:17;;;;;;;46.77;26.33;;;1.10;99.90;;;;;;5041981;28;20635;-68
2022/11/22 17:00:45;;;;;;;41.63;23.53;;;1.00;99.90;;;;;;5020196;28;20206;-69
2022/11/22 17:03:14;;;;;;;40.83;24.07;;;1.00;99.90;;;;;;5024792;28;20650;-69
2022/11/22 17:05:41;;;;;;;38.93;23.33;;;1.00;99.90;;;;;;5032981;28;20210;-68
2022/11/22 17:08:14;;;;;;;39.57;23.97;;;1.00;99.90;;;;;;5032548;28;20202;-70
2022/11/22 17:10:45;;;;;;;41.30;24.53;;;1.00;99.90;;;;;;5032801;28;20206;-68
2022/11/22 17:13:17;;;;;;;37.37;23.07;;;1.00;99.90;;;;;;5032776;28;20244;-68
2022/11/22 17:15:44;;;;;;;42.30;23.37;;;1.00;99.90;;;;;;5034928;28;20197;-67
2022/11/22 17:18:11;;;;;;;40.20;24.27;;;1.00;99.90;;;;;;5032054;28;20213;-68
2022/11/22 17:20:38;;;;;;;42.90;24.83;;;1.00;99.90;;;;;;5032626;28;20558;-67
2022/11/22 17:23:09;;;;;;;43.03;24.10;;;1.00;99.90;;;;;;5032456;28;20206;-66
2022/11/22 17:25:37;;;;;;;40.23;23.77;;;1.00;99.90;;;;;;5032206;28;20201;-67
2022/11/22 17:28:04;;;;;;;43.20;24.57;;;1.00;99.90;;;;;;5031934;28;20206;-69
2022/11/22 17:30:31;;;;;;;44.97;24.90;;;1.00;99.90;;;;;;5032222;28;20226;-67
2022/11/22 17:32:58;;;;;;;41.43;23.83;;;1.00;99.90;;;;;;5035094;28;20254;-66
2022/11/22 17:35:24;;;;;;;42.23;24.07;;;1.00;99.90;;;;;;5012533;28;20206;-67
2022/11/22 17:37:53;;;;;;;40.73;23.10;;;1.00;99.90;;;;;;5015905;28;20202;-68
2022/11/22 17:40:20;;;;;;;40.87;23.67;;;1.00;99.90;;;;;;5033276;28;20697;-68
2022/11/22 17:42:48;;;;;;;40.10;23.03;;;1.00;99.90;;;;;;5031321;28;20197;-66
2022/11/22 17:45:15;;;;;;;39.53;24.33;;;1.00;99.90;;;;;;5011956;28;20210;-67
2022/11/22 17:47:42;;;;;;;40.87;23.50;;;0.90;99.90;;;;;;5027814;28;20296;-65
2022/11/22 17:50:10;;;;;;;42.57;23.50;;;0.90;99.90;;;;;;5044905;28;20234;-66
2022/11/22 17:52:37;;;;;;;35.87;21.90;;;0.90;99.90;;;;;;5017969;28;20217;-66
2022/11/22 17:55:04;;;;;;;38.50;23.27;;;0.90;99.90;;;;;;5040847;28;20207;-68
2022/11/22 17:57:31;;;;;;;37.87;22.97;;;0.90;99.90;;;;;;5032946;28;20208;-68
2022/11/22 17:59:59;;;;;;;42.10;22.90;;;0.90;99.90;;;;;;5033538;28;20559;-67
2022/11/22 18:02:26;;;;;;;39.53;22.60;;;0.90;99.90;;;;;;5020737;28;20226;-69
2022/11/22 18:04:54;;;;;;;40.73;22.97;;;0.80;99.90;;;;;;5010908;28;20211;-69
2022/11/22 18:07:22;;;;;;;46.93;28.07;;;0.90;99.90;;;;;;5012107;28;20207;-70
2022/11/22 18:09:50;;;;;;;48.40;29.67;;;0.90;99.90;;;;;;5024890;28;20213;-68
2022/11/22 18:12:18;;;;;;;41.93;23.43;;;0.90;99.90;;;;;;5028372;28;20218;-67
2022/11/22 18:14:46;;;;;;;41.03;24.13;;;0.90;99.90;;;;;;5031864;28;20578;-67
2022/11/22 18:17:14;;;;;;;36.03;22.33;;;0.90;99.90;;;;;;5031537;28;20210;-69
2022/11/22 18:19:41;;;;;;;42.93;23.97;;;0.90;99.90;;;;;;5032021;28;20206;-68
2022/11/22 18:22:07;;;;;;;44.23;24.10;;;1.00;99.90;;;;;;5029566;28;20202;-66
2022/11/22 18:24:34;;;;;;;43.00;24.43;;;1.00;99.90;;;;;;5020199;28;20206;-67
2022/11/22 18:27:01;;;;;;;43.83;26.30;;;1.00;99.90;;;;;;5011988;28;20207;-67
2022/11/22 18:29:28;;;;;;;47.20;26.83;;;1.00;99.90;;;;;;5030813;28;20202;-67
2022/11/22 18:31:55;;;;;;;42.87;24.93;;;1.00;99.90;;;;;;5031107;28;20241;-67
2022/11/22 18:34:23;;;;;;;41.30;24.40;;;1.00;99.90;;;;;;5032395;28;20204;-67
2022/11/22 18:36:51;;;;;;;41.60;24.93;;;1.00;99.90;;;;;;5022683;28;20210;-67
2022/11/22 18:39:20;;;;;;;41.97;24.47;;;1.00;99.90;;;;;;5032839;28;20198;-68
2022/11/22 18:41:47;;;;;;;43.20;24.07;;;1.00;99.90;;;;;;5012577;28;20207;-70
2022/11/22 18:44:14;;;;;;;44.07;25.10;;;1.00;99.90;;;;;;5030291;28;20669;-69
2022/11/22 18:46:40;;;;;;;41.90;24.30;;;1.00;99.90;;;;;;5023446;28;20206;-67
2022/11/22 18:49:07;;;;;;;51.20;30.30;;;1.00;99.90;;;;;;5011610;28;20207;-69
2022/11/22 18:51:36;;;;;;;44.77;27.20;;;1.00;99.90;;;;;;5022666;28;20229;-69
2022/11/22 18:54:02;;;;;;;47.03;25.43;;;1.00;99.90;;;;;;5031279;28;20198;-68
2022/11/22 18:56:29;;;;;;;44.30;24.83;;;1.00;99.90;;;;;;5028495;28;20202;-67
2022/11/22 18:58:56;;;;;;;41.87;23.57;;;1.00;99.90;;;;;;5024780;28;20206;-67
2022/11/22 19:01:25;;;;;;;40.70;23.37;;;1.00;99.90;;;;;;5035314;28;20206;-67
2022/11/22 19:03:51;;;;;;;41.60;23.87;;;1.00;99.90;;;;;;5017462;28;20540;-69
2022/11/22 19:06:19;;;;;;;38.67;23.50;;;1.00;99.90;;;;;;5015217;28;20210;-68
2022/11/22 19:08:48;;;;;;;41.37;23.47;;;1.00;99.90;;;;;;5035294;28;20654;-68
2022/11/22 19:11:15;;;;;;;39.07;22.97;;;1.00;99.90;;;;;;5034818;28;20229;-68
2022/11/22 19:13:44;;;;;;;40.63;24.07;;;0.90;99.90;;;;;;5034856;28;20226;-66
2022/11/22 19:16:12;;;;;;;40.80;24.77;;;0.90;99.90;;;;;;5033678;28;20210;-68
2022/11/22 19:18:40;;;;;;;38.70;23.30;;;0.90;99.90;;;;;;5035103;28;20202;-67
2022/11/22 19:21:08;;;;;;;36.57;21.80;;;0.90;99.90;;;;;;5034814;28;20320;-67